createdAt,value
2017-05-05T00:02:26.015Z,39.70
2017-05-05T00:04:52.709Z,39.80
2017-05-05T00:07:19.419Z,39.80
2017-05-05T00:09:46.099Z,39.90
2017-05-05T00:12:12.804Z,39.80
2017-05-05T00:14:39.481Z,39.90
2017-05-05T00:17:06.169Z,39.90
2017-05-05T00:19:32.846Z,39.90
2017-05-05T00:21:59.538Z,39.80
2017-05-05T00:24:26.223Z,39.80
2017-05-05T00:26:52.917Z,39.70
2017-05-05T00:29:19.595Z,39.70
2017-05-05T00:31:46.274Z,39.80
2017-05-05T00:34:12.966Z,39.80
2017-05-05T00:36:39.657Z,39.80
2017-05-05T00:39:06.346Z,39.70
2017-05-05T00:41:33.037Z,39.70
2017-05-05T00:43:59.722Z,39.70
2017-05-05T00:46:26.405Z,39.60
2017-05-05T00:48:53.854Z,40.00
2017-05-05T00:51:21.311Z,39.70
2017-05-05T00:53:47.999Z,39.70
2017-05-05T00:56:14.674Z,39.70
2017-05-05T00:58:41.374Z,39.60
2017-05-05T01:01:08.083Z,39.60
2017-05-05T01:03:35.526Z,39.70
2017-05-05T01:06:02.222Z,39.70
2017-05-05T01:08:28.894Z,39.60
2017-05-05T01:10:55.589Z,39.60
2017-05-05T01:13:22.298Z,39.60
2017-05-05T01:15:49.725Z,39.70
2017-05-05T01:18:16.417Z,39.60
2017-05-05T01:20:43.106Z,39.70
2017-05-05T01:23:09.773Z,39.60
2017-05-05T01:25:36.458Z,39.70
2017-05-05T01:28:03.129Z,39.60
2017-05-05T01:30:29.819Z,39.70
2017-05-05T01:32:56.497Z,39.60
2017-05-05T01:35:23.194Z,39.80
2017-05-05T01:37:49.958Z,39.60
2017-05-05T01:40:16.637Z,39.60
2017-05-05T01:42:43.316Z,39.70
2017-05-05T01:45:10.032Z,39.60
2017-05-05T01:47:36.738Z,39.60
2017-05-05T01:50:03.440Z,39.50
2017-05-05T01:52:30.137Z,39.50
2017-05-05T01:54:57.638Z,39.60
2017-05-05T01:57:24.329Z,39.60
2017-05-05T01:59:50.997Z,39.60
2017-05-05T02:02:17.748Z,39.60
2017-05-05T02:04:44.429Z,39.60
2017-05-05T02:07:11.153Z,39.60
2017-05-05T02:09:37.967Z,39.50
2017-05-05T02:12:04.658Z,39.60
2017-05-05T02:14:32.081Z,39.50
2017-05-05T02:16:58.789Z,39.60
2017-05-05T02:19:25.493Z,39.60
2017-05-05T02:21:52.954Z,39.50
2017-05-05T02:24:20.398Z,39.50
2017-05-05T02:26:47.069Z,39.60
2017-05-05T02:29:13.762Z,39.60
2017-05-05T02:31:40.478Z,39.40
2017-05-05T02:34:07.181Z,39.40
2017-05-05T02:36:33.865Z,39.40
2017-05-05T02:39:00.550Z,39.40
2017-05-05T02:41:27.986Z,39.50
2017-05-05T02:43:54.694Z,39.50
2017-05-05T02:46:21.383Z,39.50
2017-05-05T02:48:48.870Z,39.50
2017-05-05T02:51:15.607Z,39.50
2017-05-05T02:53:42.299Z,39.50
2017-05-05T02:56:09.024Z,39.40
2017-05-05T02:58:35.709Z,39.40
2017-05-05T03:01:02.413Z,39.40
2017-05-05T03:03:29.082Z,39.40
2017-05-05T03:05:56.505Z,39.50
2017-05-05T03:08:23.186Z,39.60
2017-05-05T03:10:49.974Z,39.60
2017-05-05T03:13:16.646Z,39.60
2017-05-05T03:15:44.064Z,39.50
2017-05-05T03:18:10.749Z,39.60
2017-05-05T03:20:37.421Z,39.60
2017-05-05T03:23:04.117Z,39.60
2017-05-05T03:25:31.531Z,39.50
2017-05-05T03:27:58.269Z,39.50
2017-05-05T03:30:24.953Z,39.50
2017-05-05T03:32:51.646Z,39.60
2017-05-05T03:35:18.393Z,39.60
2017-05-05T03:37:45.125Z,39.60
2017-05-05T03:40:11.803Z,39.60
2017-05-05T03:42:39.249Z,39.50
2017-05-05T03:45:05.920Z,39.50
2017-05-05T03:47:32.596Z,39.60
2017-05-05T03:49:59.281Z,39.60
2017-05-05T03:52:25.977Z,39.60
2017-05-05T03:54:52.663Z,39.60
2017-05-05T03:57:20.112Z,39.50
2017-05-05T03:59:46.829Z,39.40
2017-05-05T04:02:13.509Z,39.50
2017-05-05T04:04:40.225Z,39.60
2017-05-05T04:07:06.933Z,39.60
2017-05-05T04:09:33.635Z,39.60
2017-05-05T04:12:00.329Z,39.50
2017-05-05T04:14:27.021Z,39.50
2017-05-05T04:16:53.718Z,39.50
2017-05-05T04:19:20.394Z,39.50
2017-05-05T04:21:47.080Z,39.50
2017-05-05T04:24:13.758Z,39.40
2017-05-05T04:26:40.467Z,39.40
2017-05-05T04:29:07.168Z,39.40
2017-05-05T04:31:33.856Z,39.40
2017-05-05T04:34:00.541Z,39.50
2017-05-05T04:36:27.241Z,39.40
2017-05-05T04:38:54.685Z,39.30
2017-05-05T04:41:21.377Z,39.40
2017-05-05T04:43:48.073Z,39.50
2017-05-05T04:46:15.545Z,39.40
2017-05-05T04:48:42.233Z,39.40
2017-05-05T04:51:08.930Z,39.40
2017-05-05T04:53:35.653Z,39.30
2017-05-05T04:56:02.342Z,39.40
2017-05-05T04:58:29.037Z,39.40
2017-05-05T05:00:56.459Z,39.30
2017-05-05T05:03:23.140Z,39.30
2017-05-05T05:05:49.818Z,39.30
2017-05-05T05:08:16.509Z,39.40
2017-05-05T05:10:43.192Z,39.40
2017-05-05T05:13:09.883Z,39.30
2017-05-05T05:15:36.619Z,39.30
2017-05-05T05:18:04.044Z,39.30
2017-05-05T05:20:30.742Z,39.30
2017-05-05T05:22:57.422Z,39.30
2017-05-05T05:25:24.162Z,39.40
2017-05-05T05:27:50.849Z,39.30
2017-05-05T05:30:17.554Z,39.30
2017-05-05T05:32:44.253Z,39.30
2017-05-05T05:35:10.945Z,39.30
2017-05-05T05:37:38.371Z,39.20
2017-05-05T05:40:05.069Z,39.30
2017-05-05T05:42:31.795Z,39.20
2017-05-05T05:44:58.507Z,39.80
2017-05-05T05:47:25.210Z,39.30
2017-05-05T05:49:51.894Z,39.20
2017-05-05T05:52:19.345Z,39.20
2017-05-05T05:54:46.767Z,39.40
2017-05-05T05:57:13.453Z,39.20
2017-05-05T05:59:40.885Z,39.20
2017-05-05T06:02:07.609Z,39.20
2017-05-05T06:04:34.317Z,39.10
2017-05-05T06:07:00.991Z,39.20
2017-05-05T06:09:27.676Z,39.20
2017-05-05T06:11:54.367Z,39.10
2017-05-05T06:14:21.073Z,39.10
2017-05-05T06:16:47.774Z,39.10
2017-05-05T06:19:14.497Z,39.20
2017-05-05T06:21:41.164Z,39.00
2017-05-05T06:24:08.587Z,39.00
2017-05-05T06:26:35.273Z,38.90
2017-05-05T06:29:02.130Z,38.90
2017-05-05T06:31:28.811Z,38.80
2017-05-05T06:33:55.516Z,39.50
2017-05-05T06:36:22.263Z,38.90
2017-05-05T06:38:48.974Z,38.90
2017-05-05T06:41:15.663Z,39.00
2017-05-05T06:43:42.354Z,38.90
2017-05-05T06:46:09.026Z,38.90
2017-05-05T06:48:35.786Z,38.90
2017-05-05T06:51:02.513Z,38.90
2017-05-05T06:53:29.227Z,38.80
2017-05-05T06:55:55.923Z,38.90
2017-05-05T06:58:23.361Z,38.80
2017-05-05T07:00:50.044Z,38.80
2017-05-05T07:03:16.733Z,38.80
2017-05-05T07:05:43.409Z,38.80
2017-05-05T07:08:10.116Z,38.80
2017-05-05T07:10:36.806Z,38.80
2017-05-05T07:13:03.488Z,38.70
2017-05-05T07:15:30.209Z,38.70
2017-05-05T07:17:56.896Z,38.70
2017-05-05T07:20:23.585Z,38.60
2017-05-05T07:22:50.305Z,38.60
2017-05-05T07:25:17.003Z,38.60
2017-05-05T07:27:43.694Z,38.60
2017-05-05T07:30:10.437Z,38.50
2017-05-05T07:32:37.109Z,38.50
2017-05-05T07:35:03.812Z,38.50
2017-05-05T07:37:30.494Z,38.40
2017-05-05T07:39:57.192Z,38.40
2017-05-05T07:42:23.861Z,38.40
2017-05-05T07:44:50.629Z,38.30
2017-05-05T07:47:17.331Z,38.30
2017-05-05T07:49:44.021Z,38.40
2017-05-05T07:52:10.796Z,38.20
2017-05-05T07:54:37.512Z,38.20
2017-05-05T07:57:04.339Z,38.10
2017-05-05T07:59:31.030Z,38.10
2017-05-05T08:01:57.729Z,37.90
2017-05-05T08:04:24.448Z,37.90
2017-05-05T08:06:51.197Z,37.80
2017-05-05T08:09:17.966Z,37.70
2017-05-05T08:11:44.689Z,37.70
2017-05-05T08:14:11.377Z,37.70
2017-05-05T08:16:38.077Z,37.70
2017-05-05T08:19:04.826Z,37.70
2017-05-05T08:21:31.525Z,37.60
2017-05-05T08:23:59.026Z,37.60
2017-05-05T08:26:25.732Z,37.60
2017-05-05T08:28:52.548Z,37.70
2017-05-05T08:31:19.243Z,37.70
2017-05-05T08:33:45.930Z,37.70
2017-05-05T08:36:12.610Z,37.70
2017-05-05T08:38:39.301Z,37.70
2017-05-05T08:41:06.010Z,38.00
2017-05-05T08:43:32.698Z,37.70
2017-05-05T08:46:00.137Z,37.70
2017-05-05T08:48:26.838Z,37.80
2017-05-05T08:50:53.561Z,37.60
2017-05-05T08:53:20.280Z,37.60
2017-05-05T08:55:46.974Z,37.60
2017-05-05T08:58:13.661Z,37.60
2017-05-05T09:00:40.397Z,37.50
2017-05-05T09:03:07.078Z,37.40
2017-05-05T09:05:33.795Z,37.20
2017-05-05T09:08:00.485Z,37.10
2017-05-05T09:10:27.196Z,37.00
2017-05-05T09:12:53.866Z,36.80
2017-05-05T09:15:20.630Z,36.90
2017-05-05T09:17:48.083Z,36.90
2017-05-05T09:20:15.521Z,37.00
2017-05-05T09:22:42.205Z,37.00
2017-05-05T09:25:08.989Z,37.10
2017-05-05T09:27:35.685Z,37.10
2017-05-05T09:30:02.399Z,37.30
2017-05-05T09:32:29.073Z,37.30
2017-05-05T09:34:55.854Z,37.40
2017-05-05T09:37:22.521Z,37.40
2017-05-05T09:39:49.198Z,37.30
2017-05-05T09:42:15.893Z,37.30
2017-05-05T09:44:42.605Z,37.30
2017-05-05T09:47:09.504Z,37.20
2017-05-05T09:49:36.233Z,37.10
2017-05-05T09:52:02.921Z,37.00
2017-05-05T09:54:29.621Z,36.90
2017-05-05T09:56:56.319Z,36.80
2017-05-05T09:59:23.040Z,36.60
2017-05-05T10:01:49.757Z,36.40
2017-05-05T10:04:16.634Z,36.40
2017-05-05T10:06:44.086Z,36.30
2017-05-05T10:09:10.823Z,36.30
2017-05-05T10:11:37.518Z,36.30
2017-05-05T10:14:04.197Z,36.20
2017-05-05T10:16:30.910Z,36.10
2017-05-05T10:18:57.614Z,36.00
2017-05-05T10:21:25.071Z,36.30
2017-05-05T10:23:52.481Z,35.60
2017-05-05T10:26:19.173Z,35.60
2017-05-05T10:28:45.907Z,35.60
2017-05-05T10:31:12.788Z,35.60
2017-05-05T10:33:39.488Z,35.60
2017-05-05T10:36:06.961Z,35.60
2017-05-05T10:38:33.642Z,35.70
2017-05-05T10:41:00.343Z,35.70
2017-05-05T10:43:27.041Z,35.60
2017-05-05T10:45:53.709Z,35.70
2017-05-05T10:48:20.423Z,35.50
2017-05-05T10:50:47.089Z,35.50
2017-05-05T10:53:13.799Z,35.40
2017-05-05T10:55:40.462Z,35.30
2017-05-05T10:58:07.889Z,35.30
2017-05-05T11:00:34.930Z,35.30
2017-05-05T11:03:01.618Z,35.30
2017-05-05T11:05:28.293Z,35.10
2017-05-05T11:07:54.966Z,35.10
2017-05-05T11:10:21.654Z,35.10
2017-05-05T11:12:48.362Z,35.10
2017-05-05T11:15:15.066Z,35.10
2017-05-05T11:17:41.749Z,35.10
2017-05-05T11:20:08.430Z,35.00
2017-05-05T11:22:35.129Z,35.00
2017-05-05T11:25:01.823Z,35.00
2017-05-05T11:27:28.490Z,35.00
2017-05-05T11:29:55.926Z,35.00
2017-05-05T11:32:22.601Z,35.00
2017-05-05T11:34:49.349Z,35.00
2017-05-05T11:37:16.089Z,34.90
2017-05-05T11:39:42.854Z,34.90
2017-05-05T11:42:09.589Z,34.90
2017-05-05T11:44:36.308Z,34.70
2017-05-05T11:47:03.206Z,34.70
2017-05-05T11:49:30.009Z,34.70
2017-05-05T11:51:56.689Z,34.80
2017-05-05T11:54:23.567Z,34.80
2017-05-05T11:56:50.261Z,34.70
2017-05-05T11:59:16.930Z,34.80
2017-05-05T12:01:44.413Z,34.90
2017-05-05T12:04:11.114Z,34.90
2017-05-05T12:06:37.797Z,34.90
2017-05-05T12:09:04.505Z,34.90
2017-05-05T12:11:31.233Z,34.90
2017-05-05T12:13:57.916Z,34.90
2017-05-05T12:16:24.613Z,34.80
2017-05-05T12:18:52.054Z,34.80
2017-05-05T12:21:18.859Z,34.90
2017-05-05T12:23:45.590Z,34.90
2017-05-05T12:26:12.266Z,35.00
2017-05-05T12:28:39.065Z,35.00
2017-05-05T12:31:05.733Z,35.00
2017-05-05T12:33:32.413Z,35.00
2017-05-05T12:35:59.866Z,35.10
2017-05-05T12:38:26.574Z,35.10
2017-05-05T12:40:53.359Z,35.10
2017-05-05T12:43:20.082Z,35.30
2017-05-05T12:45:47.498Z,35.30
2017-05-05T12:48:14.266Z,35.30
2017-05-05T12:50:40.941Z,35.40
2017-05-05T12:53:07.645Z,35.40
2017-05-05T12:55:35.069Z,35.10
2017-05-05T12:58:01.758Z,35.40
2017-05-05T13:00:29.185Z,35.50
2017-05-05T13:02:55.883Z,35.50
2017-05-05T13:05:22.562Z,35.50
2017-05-05T13:07:49.257Z,35.50
2017-05-05T13:10:15.945Z,35.40
2017-05-05T13:12:42.653Z,35.60
2017-05-05T13:15:09.322Z,35.50
2017-05-05T13:17:36.013Z,36.20
2017-05-05T13:20:02.703Z,35.50
2017-05-05T13:22:29.373Z,35.50
2017-05-05T13:24:56.100Z,35.40
2017-05-05T13:27:22.803Z,35.40
2017-05-05T13:29:49.526Z,35.40
2017-05-05T13:32:16.209Z,35.40
2017-05-05T13:34:42.894Z,35.50
2017-05-05T13:37:09.561Z,35.50
2017-05-05T13:39:36.246Z,35.50
2017-05-05T13:42:03.062Z,35.50
2017-05-05T13:44:29.856Z,35.50
2017-05-05T13:46:56.553Z,35.50
2017-05-05T13:49:24.213Z,35.60
2017-05-05T13:51:51.636Z,35.70
2017-05-05T13:54:18.345Z,35.80
2017-05-05T13:56:45.020Z,35.90
2017-05-05T13:59:11.723Z,35.90
2017-05-05T14:01:38.402Z,36.00
2017-05-05T14:04:05.198Z,36.00
2017-05-05T14:06:31.931Z,36.10
2017-05-05T14:08:58.607Z,36.10
2017-05-05T14:11:25.327Z,36.20
2017-05-05T14:13:52.012Z,36.10
2017-05-05T14:16:19.436Z,36.20
2017-05-05T14:18:46.105Z,36.10
2017-05-05T14:21:13.534Z,36.70
2017-05-05T14:23:40.239Z,36.10
2017-05-05T14:26:06.953Z,36.00
2017-05-05T14:28:33.633Z,36.00
2017-05-05T14:31:00.373Z,35.90
2017-05-05T14:33:27.041Z,35.80
2017-05-05T14:35:53.809Z,35.70
2017-05-05T14:38:20.518Z,35.70
2017-05-05T14:40:47.201Z,35.50
2017-05-05T14:43:13.925Z,35.60
2017-05-05T14:45:41.357Z,35.50
2017-05-05T14:48:08.045Z,35.40
2017-05-05T14:50:34.729Z,35.40
2017-05-05T14:53:01.434Z,35.40
2017-05-05T14:55:28.134Z,35.40
2017-05-05T14:57:54.838Z,35.40
2017-05-05T15:00:21.532Z,35.40
2017-05-05T15:02:48.224Z,35.50
2017-05-05T15:05:14.901Z,35.40
2017-05-05T15:07:41.603Z,35.40
2017-05-05T15:10:08.282Z,35.40
2017-05-05T15:12:34.987Z,35.40
2017-05-05T15:15:01.676Z,35.30
2017-05-05T15:17:28.357Z,35.30
2017-05-05T15:19:55.056Z,35.30
2017-05-05T15:22:21.798Z,35.30
2017-05-05T15:24:48.481Z,35.30
2017-05-05T15:27:15.153Z,35.30
2017-05-05T15:29:41.838Z,35.30
2017-05-05T15:32:08.501Z,35.30
2017-05-05T15:34:35.194Z,35.80
2017-05-05T15:37:01.875Z,35.30
2017-05-05T15:39:28.586Z,35.40
2017-05-05T15:41:55.314Z,35.30
2017-05-05T15:44:22.035Z,35.40
2017-05-05T15:46:48.721Z,35.50
2017-05-05T15:51:48.745Z,35.50
2017-05-05T15:54:15.469Z,35.60
2017-05-05T15:56:42.143Z,35.60
2017-05-05T15:59:08.845Z,35.60
2017-05-05T16:01:35.523Z,35.70
2017-05-05T16:04:02.226Z,35.70
2017-05-05T16:06:28.967Z,35.80
2017-05-05T16:08:55.669Z,35.90
2017-05-05T16:11:22.350Z,36.00
2017-05-05T16:13:49.034Z,36.10
2017-05-05T16:16:15.725Z,36.10
2017-05-05T16:18:42.421Z,36.20
2017-05-05T16:21:09.860Z,36.10
2017-05-05T16:23:36.565Z,36.20
2017-05-05T16:26:03.249Z,36.20
2017-05-05T16:28:30.664Z,36.30
2017-05-05T16:30:57.354Z,36.30
2017-05-05T16:33:24.025Z,36.60
2017-05-05T16:35:50.726Z,36.30
2017-05-05T16:38:17.422Z,36.30
2017-05-05T16:40:44.137Z,36.30
2017-05-05T16:43:10.818Z,36.40
2017-05-05T16:45:37.501Z,36.40
2017-05-05T16:48:04.183Z,36.50
2017-05-05T16:50:30.878Z,36.50
2017-05-05T16:52:57.562Z,36.60
2017-05-05T16:55:24.337Z,36.60
2017-05-05T16:57:51.084Z,36.60
2017-05-05T17:00:17.877Z,36.60
2017-05-05T17:02:44.573Z,36.60
2017-05-05T17:05:11.313Z,36.60
2017-05-05T17:07:38.005Z,36.70
2017-05-05T17:10:04.695Z,36.70
2017-05-05T17:12:31.446Z,36.80
2017-05-05T17:14:58.121Z,36.80
2017-05-05T17:17:24.828Z,36.80
2017-05-05T17:19:51.498Z,36.80
2017-05-05T17:22:18.198Z,36.90
2017-05-05T17:24:44.873Z,36.80
2017-05-05T17:27:11.585Z,36.80
2017-05-05T17:29:38.269Z,37.00
2017-05-05T17:32:04.985Z,37.00
2017-05-05T17:34:31.686Z,37.00
2017-05-05T17:36:58.373Z,37.00
2017-05-05T17:39:25.112Z,37.20
2017-05-05T17:41:52.558Z,36.80
2017-05-05T17:44:19.263Z,37.20
2017-05-05T17:46:46.011Z,37.20
2017-05-05T17:49:12.686Z,37.20
2017-05-05T17:51:39.410Z,37.20
2017-05-05T17:54:06.134Z,37.20
2017-05-05T17:56:32.842Z,37.30
2017-05-05T17:58:59.550Z,37.20
2017-05-05T18:01:26.320Z,37.30
2017-05-05T18:03:53.066Z,37.40
2017-05-05T18:06:19.750Z,37.10
2017-05-05T18:08:46.445Z,37.50
2017-05-05T18:11:13.138Z,37.50
2017-05-05T18:13:39.838Z,37.60
2017-05-05T18:16:06.694Z,37.60
2017-05-05T18:18:33.389Z,37.60
2017-05-05T18:21:00.858Z,37.70
2017-05-05T18:23:27.561Z,37.70
2017-05-05T18:25:54.242Z,37.70
2017-05-05T18:28:20.935Z,37.70
2017-05-05T18:30:47.618Z,37.70
2017-05-05T18:33:14.321Z,37.80
2017-05-05T18:35:41.810Z,37.80
2017-05-05T18:38:08.501Z,37.80
2017-05-05T18:40:35.223Z,37.80
2017-05-05T18:43:01.909Z,37.80
2017-05-05T18:45:28.605Z,37.90
2017-05-05T18:47:55.305Z,38.00
2017-05-05T18:50:22.756Z,37.90
2017-05-05T18:52:50.177Z,38.00
2017-05-05T18:55:16.877Z,37.90
2017-05-05T18:57:43.557Z,38.00
2017-05-05T19:00:10.270Z,38.00
2017-05-05T19:02:36.971Z,38.10
2017-05-05T19:05:04.421Z,38.10
2017-05-05T19:07:31.862Z,38.10
2017-05-05T19:09:58.555Z,38.20
2017-05-05T19:12:25.248Z,38.10
2017-05-05T19:14:51.966Z,38.20
2017-05-05T19:17:18.638Z,38.20
2017-05-05T19:19:46.094Z,38.20
2017-05-05T19:22:12.809Z,38.30
2017-05-05T19:24:39.506Z,38.30
2017-05-05T19:27:06.253Z,38.30
2017-05-05T19:29:32.933Z,38.30
2017-05-05T19:31:59.621Z,39.00
2017-05-05T19:34:26.328Z,38.40
2017-05-05T19:36:53.220Z,38.40
2017-05-05T19:39:20.038Z,38.40
2017-05-05T19:41:46.722Z,38.40
2017-05-05T19:44:13.414Z,38.40
2017-05-05T19:46:40.165Z,38.40
2017-05-05T19:49:06.875Z,38.50
2017-05-05T19:51:33.735Z,38.40
2017-05-05T19:54:00.526Z,38.50
2017-05-05T19:56:27.292Z,38.50
2017-05-05T19:58:54.727Z,38.50
2017-05-05T20:01:21.421Z,38.60
2017-05-05T20:03:48.110Z,38.50
2017-05-05T20:06:14.897Z,38.60
2017-05-05T20:08:41.594Z,38.60
2017-05-05T20:11:08.283Z,38.60
2017-05-05T20:13:34.986Z,38.60
2017-05-05T20:16:02.397Z,38.60
2017-05-05T20:18:29.134Z,38.60
2017-05-05T20:20:55.853Z,38.60
2017-05-05T20:23:22.552Z,38.60
2017-05-05T20:25:49.237Z,38.60
2017-05-05T20:28:15.933Z,38.60
2017-05-05T20:30:42.601Z,38.60
2017-05-05T20:33:09.312Z,38.60
2017-05-05T20:35:36.745Z,38.60
2017-05-05T20:38:03.432Z,38.60
2017-05-05T20:40:30.176Z,38.60
2017-05-05T20:42:56.862Z,38.60
2017-05-05T20:45:23.549Z,38.70
2017-05-05T20:47:50.241Z,38.70
2017-05-05T20:50:16.925Z,38.80
2017-05-05T20:52:43.606Z,38.80
2017-05-05T20:55:10.303Z,38.70
2017-05-05T20:57:36.978Z,38.70
2017-05-05T21:00:03.695Z,38.70
2017-05-05T21:02:30.385Z,38.80
2017-05-05T21:04:57.810Z,38.70
2017-05-05T21:07:24.491Z,38.80
2017-05-05T21:09:51.941Z,38.80
2017-05-05T21:12:19.377Z,38.80
2017-05-05T21:14:46.118Z,38.80
2017-05-05T21:17:12.895Z,38.80
2017-05-05T21:19:39.566Z,38.70
2017-05-05T21:22:06.262Z,38.70
2017-05-05T21:24:32.937Z,38.70
2017-05-05T21:26:59.633Z,38.80
2017-05-05T21:29:27.050Z,38.80
2017-05-05T21:31:53.733Z,38.80
2017-05-05T21:34:21.147Z,38.80
2017-05-05T21:36:47.901Z,38.80
2017-05-05T21:39:14.578Z,38.70
2017-05-05T21:41:41.274Z,38.80
2017-05-05T21:44:08.032Z,38.80
2017-05-05T21:46:34.763Z,39.50
2017-05-05T21:49:01.445Z,38.90
2017-05-05T21:51:28.235Z,38.80
2017-05-05T21:53:54.945Z,38.80
2017-05-05T21:56:21.652Z,38.80
2017-05-05T21:58:48.403Z,38.90
2017-05-05T22:01:15.082Z,38.80
2017-05-05T22:03:41.899Z,38.80
2017-05-05T22:06:08.671Z,38.90
2017-05-05T22:08:35.455Z,38.80
2017-05-05T22:11:02.137Z,38.80
2017-05-05T22:13:28.846Z,38.80
2017-05-05T22:15:55.581Z,38.90
2017-05-05T22:18:22.265Z,38.80
2017-05-05T22:20:48.950Z,38.80
2017-05-05T22:23:15.687Z,38.80
2017-05-05T22:25:42.378Z,38.90
2017-05-05T22:28:09.077Z,38.80
2017-05-05T22:30:35.777Z,38.80
2017-05-05T22:33:02.475Z,39.40
2017-05-05T22:35:29.161Z,38.90
2017-05-05T22:37:56.613Z,38.90
2017-05-05T22:40:24.033Z,39.60
2017-05-05T22:42:50.746Z,38.80
2017-05-05T22:45:17.426Z,38.80
2017-05-05T22:47:44.102Z,38.90
2017-05-05T22:50:10.840Z,38.80
2017-05-05T22:52:38.267Z,38.80
2017-05-05T22:55:04.979Z,38.80
2017-05-05T22:57:31.679Z,38.90
2017-05-05T22:59:58.371Z,38.90
2017-05-05T23:02:25.053Z,38.80
2017-05-05T23:04:51.742Z,38.80
2017-05-05T23:07:18.429Z,38.90
2017-05-05T23:09:45.889Z,38.90
2017-05-05T23:12:13.314Z,38.90
2017-05-05T23:14:40.003Z,38.90
2017-05-05T23:17:06.686Z,38.90
2017-05-05T23:19:33.357Z,38.90
2017-05-05T23:22:00.049Z,38.80
2017-05-05T23:24:26.725Z,38.80
2017-05-05T23:26:53.429Z,38.90
2017-05-05T23:29:20.106Z,38.90
2017-05-05T23:31:47.546Z,39.00
2017-05-05T23:34:14.230Z,38.90
2017-05-05T23:36:40.912Z,38.90
2017-05-05T23:39:07.588Z,38.90
2017-05-05T23:41:34.295Z,38.90
2017-05-05T23:44:00.995Z,38.90
2017-05-05T23:46:27.685Z,38.90
2017-05-05T23:48:54.378Z,38.90
2017-05-05T23:51:21.078Z,39.00
2017-05-05T23:53:47.764Z,39.10
2017-05-05T23:56:14.477Z,38.90
2017-05-05T23:58:41.161Z,38.90
